sensor_id;sensor_type;location;lat;lon;timestamp;P1;durP1;ratioP1;P2;durP2;ratioP2
11203;SDS011;5659;49.408;11.116;2022-08-19T00:00:45;31.67;;;27.67;;
11203;SDS011;5659;49.408;11.116;2022-08-19T00:03:11;31.02;;;27.67;;
11203;SDS011;5659;49.408;11.116;2022-08-19T00:05:37;31.30;;;28.35;;
11203;SDS011;5659;49.408;11.116;2022-08-19T00:08:03;32.63;;;29.25;;
11203;SDS011;5659;49.408;11.116;2022-08-19T00:10:29;33.15;;;29.52;;
11203;SDS011;5659;49.408;11.116;2022-08-19T00:12:55;31.77;;;28.63;;
11203;SDS011;5659;49.408;11.116;2022-08-19T00:15:21;32.83;;;29.33;;
11203;SDS011;5659;49.408;11.116;2022-08-19T00:17:47;33.55;;;29.83;;
11203;SDS011;5659;49.408;11.116;2022-08-19T00:20:14;32.90;;;29.55;;
11203;SDS011;5659;49.408;11.116;2022-08-19T00:22:42;33.00;;;29.52;;
11203;SDS011;5659;49.408;11.116;2022-08-19T00:25:09;30.98;;;27.80;;
11203;SDS011;5659;49.408;11.116;2022-08-19T00:27:35;31.10;;;27.90;;
11203;SDS011;5659;49.408;11.116;2022-08-19T00:30:01;29.65;;;26.63;;
11203;SDS011;5659;49.408;11.116;2022-08-19T00:32:29;27.23;;;24.50;;
11203;SDS011;5659;49.408;11.116;2022-08-19T00:34:54;30.73;;;23.95;;
11203;SDS011;5659;49.408;11.116;2022-08-19T00:37:21;27.83;;;23.25;;
11203;SDS011;5659;49.408;11.116;2022-08-19T00:39:47;24.75;;;22.23;;
11203;SDS011;5659;49.408;11.116;2022-08-19T00:42:13;25.60;;;22.92;;
11203;SDS011;5659;49.408;11.116;2022-08-19T00:44:40;26.40;;;23.55;;
11203;SDS011;5659;49.408;11.116;2022-08-19T00:47:07;25.50;;;22.90;;
11203;SDS011;5659;49.408;11.116;2022-08-19T00:49:34;26.10;;;22.77;;
11203;SDS011;5659;49.408;11.116;2022-08-19T00:52:05;25.23;;;22.48;;
11203;SDS011;5659;49.408;11.116;2022-08-19T00:54:32;24.02;;;21.67;;
11203;SDS011;5659;49.408;11.116;2022-08-19T00:56:58;25.77;;;23.00;;
11203;SDS011;5659;49.408;11.116;2022-08-19T00:59:25;26.80;;;23.15;;
11203;SDS011;5659;49.408;11.116;2022-08-19T01:01:52;25.48;;;22.80;;
11203;SDS011;5659;49.408;11.116;2022-08-19T01:04:18;24.63;;;22.17;;
11203;SDS011;5659;49.408;11.116;2022-08-19T01:06:44;25.98;;;23.13;;
11203;SDS011;5659;49.408;11.116;2022-08-19T01:09:10;25.95;;;23.45;;
11203;SDS011;5659;49.408;11.116;2022-08-19T01:11:38;25.30;;;22.73;;
11203;SDS011;5659;49.408;11.116;2022-08-19T01:14:06;26.55;;;23.65;;
11203;SDS011;5659;49.408;11.116;2022-08-19T01:16:32;24.98;;;22.38;;
11203;SDS011;5659;49.408;11.116;2022-08-19T01:18:59;25.20;;;22.80;;
11203;SDS011;5659;49.408;11.116;2022-08-19T01:21:48;24.33;;;21.73;;
11203;SDS011;5659;49.408;11.116;2022-08-19T01:24:12;26.35;;;23.55;;
11203;SDS011;5659;49.408;11.116;2022-08-19T01:26:39;25.48;;;22.98;;
11203;SDS011;5659;49.408;11.116;2022-08-19T01:29:07;25.95;;;22.45;;
11203;SDS011;5659;49.408;11.116;2022-08-19T01:31:33;27.25;;;24.48;;
11203;SDS011;5659;49.408;11.116;2022-08-19T01:34:00;27.55;;;24.73;;
11203;SDS011;5659;49.408;11.116;2022-08-19T01:36:38;26.20;;;23.50;;
11203;SDS011;5659;49.408;11.116;2022-08-19T01:39:05;25.80;;;23.20;;
11203;SDS011;5659;49.408;11.116;2022-08-19T01:41:32;25.05;;;22.50;;
11203;SDS011;5659;49.408;11.116;2022-08-19T01:43:58;28.13;;;23.20;;
11203;SDS011;5659;49.408;11.116;2022-08-19T01:46:24;28.75;;;23.52;;
11203;SDS011;5659;49.408;11.116;2022-08-19T01:48:50;25.80;;;23.02;;
11203;SDS011;5659;49.408;11.116;2022-08-19T01:51:16;26.35;;;23.60;;
11203;SDS011;5659;49.408;11.116;2022-08-19T01:53:42;26.35;;;23.80;;
11203;SDS011;5659;49.408;11.116;2022-08-19T01:56:08;26.25;;;23.52;;
11203;SDS011;5659;49.408;11.116;2022-08-19T01:58:41;26.20;;;23.33;;
11203;SDS011;5659;49.408;11.116;2022-08-19T02:01:11;25.92;;;23.08;;
11203;SDS011;5659;49.408;11.116;2022-08-19T02:03:37;25.65;;;22.88;;
11203;SDS011;5659;49.408;11.116;2022-08-19T02:06:03;26.35;;;23.58;;
11203;SDS011;5659;49.408;11.116;2022-08-19T02:08:30;27.40;;;24.63;;
11203;SDS011;5659;49.408;11.116;2022-08-19T02:10:56;26.58;;;23.92;;
11203;SDS011;5659;49.408;11.116;2022-08-19T02:13:23;26.55;;;23.90;;
11203;SDS011;5659;49.408;11.116;2022-08-19T02:15:49;26.70;;;23.80;;
11203;SDS011;5659;49.408;11.116;2022-08-19T02:18:16;28.60;;;23.63;;
11203;SDS011;5659;49.408;11.116;2022-08-19T02:20:43;26.02;;;23.42;;
11203;SDS011;5659;49.408;11.116;2022-08-19T02:23:10;26.90;;;24.10;;
11203;SDS011;5659;49.408;11.116;2022-08-19T02:25:37;26.55;;;23.85;;
11203;SDS011;5659;49.408;11.116;2022-08-19T02:28:03;30.40;;;26.20;;
11203;SDS011;5659;49.408;11.116;2022-08-19T02:30:29;28.00;;;25.13;;
11203;SDS011;5659;49.408;11.116;2022-08-19T02:32:55;28.55;;;24.17;;
11203;SDS011;5659;49.408;11.116;2022-08-19T02:35:22;28.05;;;25.10;;
11203;SDS011;5659;49.408;11.116;2022-08-19T02:37:48;26.73;;;24.05;;
11203;SDS011;5659;49.408;11.116;2022-08-19T02:40:33;26.90;;;24.08;;
11203;SDS011;5659;49.408;11.116;2022-08-19T02:43:00;27.73;;;24.95;;
11203;SDS011;5659;49.408;11.116;2022-08-19T02:45:26;27.30;;;24.50;;
11203;SDS011;5659;49.408;11.116;2022-08-19T02:47:52;27.13;;;24.33;;
11203;SDS011;5659;49.408;11.116;2022-08-19T02:50:18;27.98;;;24.45;;
11203;SDS011;5659;49.408;11.116;2022-08-19T02:52:44;27.15;;;24.33;;
11203;SDS011;5659;49.408;11.116;2022-08-19T02:55:10;27.23;;;24.52;;
11203;SDS011;5659;49.408;11.116;2022-08-19T02:57:36;31.02;;;25.13;;
11203;SDS011;5659;49.408;11.116;2022-08-19T03:00:06;27.40;;;24.45;;
11203;SDS011;5659;49.408;11.116;2022-08-19T03:02:33;26.98;;;24.08;;
11203;SDS011;5659;49.408;11.116;2022-08-19T03:04:59;29.42;;;25.80;;
11203;SDS011;5659;49.408;11.116;2022-08-19T03:07:26;27.70;;;24.90;;
11203;SDS011;5659;49.408;11.116;2022-08-19T03:09:52;28.80;;;25.52;;
11203;SDS011;5659;49.408;11.116;2022-08-19T03:12:18;28.67;;;25.50;;
11203;SDS011;5659;49.408;11.116;2022-08-19T03:14:44;27.58;;;24.75;;
11203;SDS011;5659;49.408;11.116;2022-08-19T03:17:11;28.20;;;25.17;;
11203;SDS011;5659;49.408;11.116;2022-08-19T03:19:37;30.05;;;26.88;;
11203;SDS011;5659;49.408;11.116;2022-08-19T03:22:03;28.83;;;25.73;;
11203;SDS011;5659;49.408;11.116;2022-08-19T03:24:30;31.70;;;27.73;;
11203;SDS011;5659;49.408;11.116;2022-08-19T03:26:56;29.85;;;26.85;;
11203;SDS011;5659;49.408;11.116;2022-08-19T03:29:22;29.25;;;26.20;;
11203;SDS011;5659;49.408;11.116;2022-08-19T03:31:48;29.63;;;26.35;;
11203;SDS011;5659;49.408;11.116;2022-08-19T03:34:18;29.45;;;26.35;;
11203;SDS011;5659;49.408;11.116;2022-08-19T03:36:44;29.85;;;26.77;;
11203;SDS011;5659;49.408;11.116;2022-08-19T03:39:10;28.98;;;25.98;;
11203;SDS011;5659;49.408;11.116;2022-08-19T03:41:37;29.90;;;26.88;;
11203;SDS011;5659;49.408;11.116;2022-08-19T03:44:04;31.20;;;27.90;;
11203;SDS011;5659;49.408;11.116;2022-08-19T03:46:31;28.00;;;25.00;;
11203;SDS011;5659;49.408;11.116;2022-08-19T03:48:59;29.45;;;26.33;;
11203;SDS011;5659;49.408;11.116;2022-08-19T03:51:27;31.15;;;26.63;;
11203;SDS011;5659;49.408;11.116;2022-08-19T03:53:54;28.73;;;25.65;;
11203;SDS011;5659;49.408;11.116;2022-08-19T03:56:21;31.13;;;27.15;;
11203;SDS011;5659;49.408;11.116;2022-08-19T03:58:47;29.35;;;26.27;;
11203;SDS011;5659;49.408;11.116;2022-08-19T04:01:14;31.25;;;27.95;;
11203;SDS011;5659;49.408;11.116;2022-08-19T04:03:41;30.42;;;27.13;;
11203;SDS011;5659;49.408;11.116;2022-08-19T04:06:11;30.90;;;27.63;;
11203;SDS011;5659;49.408;11.116;2022-08-19T04:08:38;30.77;;;27.33;;
11203;SDS011;5659;49.408;11.116;2022-08-19T04:11:23;30.83;;;27.70;;
11203;SDS011;5659;49.408;11.116;2022-08-19T04:13:51;30.05;;;26.50;;
11203;SDS011;5659;49.408;11.116;2022-08-19T04:16:17;30.38;;;27.33;;
11203;SDS011;5659;49.408;11.116;2022-08-19T04:18:45;30.67;;;27.40;;
11203;SDS011;5659;49.408;11.116;2022-08-19T04:21:15;31.23;;;27.88;;
11203;SDS011;5659;49.408;11.116;2022-08-19T04:23:41;31.67;;;28.27;;
11203;SDS011;5659;49.408;11.116;2022-08-19T04:26:11;34.13;;;29.00;;
11203;SDS011;5659;49.408;11.116;2022-08-19T04:28:37;32.63;;;29.10;;
11203;SDS011;5659;49.408;11.116;2022-08-19T04:31:04;32.67;;;29.10;;
11203;SDS011;5659;49.408;11.116;2022-08-19T04:33:30;33.90;;;28.40;;
11203;SDS011;5659;49.408;11.116;2022-08-19T04:35:56;35.97;;;29.77;;
11203;SDS011;5659;49.408;11.116;2022-08-19T04:38:23;34.10;;;28.88;;
11203;SDS011;5659;49.408;11.116;2022-08-19T04:40:50;31.85;;;28.52;;
11203;SDS011;5659;49.408;11.116;2022-08-19T04:43:36;32.10;;;27.77;;
11203;SDS011;5659;49.408;11.116;2022-08-19T04:46:13;33.05;;;29.10;;
11203;SDS011;5659;49.408;11.116;2022-08-19T04:48:39;31.67;;;28.27;;
11203;SDS011;5659;49.408;11.116;2022-08-19T04:51:06;31.75;;;28.33;;
11203;SDS011;5659;49.408;11.116;2022-08-19T04:53:34;33.00;;;29.00;;
11203;SDS011;5659;49.408;11.116;2022-08-19T04:56:03;32.88;;;28.15;;
11203;SDS011;5659;49.408;11.116;2022-08-19T04:58:29;30.40;;;27.10;;
11203;SDS011;5659;49.408;11.116;2022-08-19T05:00:55;31.67;;;27.95;;
11203;SDS011;5659;49.408;11.116;2022-08-19T05:03:22;33.55;;;27.55;;
11203;SDS011;5659;49.408;11.116;2022-08-19T05:05:48;30.95;;;26.75;;
11203;SDS011;5659;49.408;11.116;2022-08-19T05:08:15;34.95;;;27.67;;
11203;SDS011;5659;49.408;11.116;2022-08-19T05:10:46;30.52;;;27.27;;
11203;SDS011;5659;49.408;11.116;2022-08-19T05:13:13;28.75;;;25.65;;
11203;SDS011;5659;49.408;11.116;2022-08-19T05:15:39;30.85;;;27.70;;
11203;SDS011;5659;49.408;11.116;2022-08-19T05:18:05;31.13;;;27.15;;
11203;SDS011;5659;49.408;11.116;2022-08-19T05:20:50;31.33;;;28.05;;
11203;SDS011;5659;49.408;11.116;2022-08-19T05:23:34;28.92;;;25.83;;
11203;SDS011;5659;49.408;11.116;2022-08-19T05:26:00;29.83;;;26.77;;
11203;SDS011;5659;49.408;11.116;2022-08-19T05:28:26;28.42;;;25.40;;
11203;SDS011;5659;49.408;11.116;2022-08-19T05:30:53;28.80;;;25.80;;
11203;SDS011;5659;49.408;11.116;2022-08-19T05:33:20;28.40;;;24.42;;
11203;SDS011;5659;49.408;11.116;2022-08-19T05:35:46;27.35;;;23.58;;
11203;SDS011;5659;49.408;11.116;2022-08-19T05:38:14;26.75;;;22.40;;
11203;SDS011;5659;49.408;11.116;2022-08-19T05:40:40;26.05;;;23.10;;
11203;SDS011;5659;49.408;11.116;2022-08-19T05:43:07;26.17;;;23.40;;
11203;SDS011;5659;49.408;11.116;2022-08-19T05:45:37;26.35;;;23.02;;
11203;SDS011;5659;49.408;11.116;2022-08-19T05:48:03;24.92;;;22.33;;
11203;SDS011;5659;49.408;11.116;2022-08-19T05:50:29;24.48;;;21.98;;
11203;SDS011;5659;49.408;11.116;2022-08-19T05:52:55;24.85;;;22.35;;
11203;SDS011;5659;49.408;11.116;2022-08-19T05:55:21;23.85;;;21.42;;
11203;SDS011;5659;49.408;11.116;2022-08-19T05:57:48;24.40;;;21.40;;
11203;SDS011;5659;49.408;11.116;2022-08-19T06:00:14;23.52;;;21.23;;
11203;SDS011;5659;49.408;11.116;2022-08-19T06:02:40;24.00;;;21.40;;
11203;SDS011;5659;49.408;11.116;2022-08-19T06:05:07;23.23;;;20.73;;
11203;SDS011;5659;49.408;11.116;2022-08-19T06:07:34;25.83;;;21.77;;
11203;SDS011;5659;49.408;11.116;2022-08-19T06:10:00;23.98;;;21.58;;
11203;SDS011;5659;49.408;11.116;2022-08-19T06:12:26;26.95;;;21.30;;
11203;SDS011;5659;49.408;11.116;2022-08-19T06:14:55;23.55;;;21.13;;
11203;SDS011;5659;49.408;11.116;2022-08-19T06:17:21;32.63;;;20.05;;
11203;SDS011;5659;49.408;11.116;2022-08-19T06:19:50;21.83;;;19.40;;
11203;SDS011;5659;49.408;11.116;2022-08-19T06:22:16;21.70;;;19.50;;
11203;SDS011;5659;49.408;11.116;2022-08-19T06:24:42;22.17;;;19.90;;
11203;SDS011;5659;49.408;11.116;2022-08-19T06:27:08;22.30;;;19.98;;
11203;SDS011;5659;49.408;11.116;2022-08-19T06:29:34;23.25;;;20.77;;
11203;SDS011;5659;49.408;11.116;2022-08-19T06:32:01;24.30;;;20.70;;
11203;SDS011;5659;49.408;11.116;2022-08-19T06:34:28;23.27;;;19.92;;
11203;SDS011;5659;49.408;11.116;2022-08-19T06:36:55;22.27;;;20.02;;
11203;SDS011;5659;49.408;11.116;2022-08-19T06:39:23;22.00;;;19.80;;
11203;SDS011;5659;49.408;11.116;2022-08-19T06:41:50;23.13;;;20.65;;
11203;SDS011;5659;49.408;11.116;2022-08-19T06:44:17;20.92;;;18.70;;
11203;SDS011;5659;49.408;11.116;2022-08-19T06:46:44;21.33;;;18.98;;
11203;SDS011;5659;49.408;11.116;2022-08-19T06:49:10;22.55;;;19.35;;
11203;SDS011;5659;49.408;11.116;2022-08-19T06:51:39;21.42;;;18.60;;
11203;SDS011;5659;49.408;11.116;2022-08-19T06:54:05;19.08;;;17.08;;
11203;SDS011;5659;49.408;11.116;2022-08-19T06:56:32;20.05;;;17.90;;
11203;SDS011;5659;49.408;11.116;2022-08-19T06:59:03;19.67;;;17.60;;
11203;SDS011;5659;49.408;11.116;2022-08-19T07:01:30;19.17;;;17.23;;
11203;SDS011;5659;49.408;11.116;2022-08-19T07:03:55;19.70;;;17.10;;
11203;SDS011;5659;49.408;11.116;2022-08-19T07:06:22;19.25;;;17.15;;
11203;SDS011;5659;49.408;11.116;2022-08-19T07:08:48;19.42;;;15.88;;
11203;SDS011;5659;49.408;11.116;2022-08-19T07:11:15;19.05;;;16.80;;
11203;SDS011;5659;49.408;11.116;2022-08-19T07:13:43;19.38;;;16.25;;
11203;SDS011;5659;49.408;11.116;2022-08-19T07:16:12;17.48;;;15.50;;
11203;SDS011;5659;49.408;11.116;2022-08-19T07:18:39;17.67;;;15.82;;
11203;SDS011;5659;49.408;11.116;2022-08-19T07:21:06;19.13;;;16.27;;
11203;SDS011;5659;49.408;11.116;2022-08-19T07:23:33;18.15;;;15.75;;
11203;SDS011;5659;49.408;11.116;2022-08-19T07:26:10;16.55;;;14.85;;
11203;SDS011;5659;49.408;11.116;2022-08-19T07:28:36;15.50;;;13.90;;
11203;SDS011;5659;49.408;11.116;2022-08-19T07:31:08;15.65;;;14.20;;
11203;SDS011;5659;49.408;11.116;2022-08-19T07:33:35;16.83;;;14.32;;
11203;SDS011;5659;49.408;11.116;2022-08-19T07:36:02;15.13;;;13.52;;
11203;SDS011;5659;49.408;11.116;2022-08-19T07:38:28;15.48;;;13.82;;
11203;SDS011;5659;49.408;11.116;2022-08-19T07:40:54;15.95;;;14.45;;
11203;SDS011;5659;49.408;11.116;2022-08-19T07:43:20;15.65;;;14.05;;
11203;SDS011;5659;49.408;11.116;2022-08-19T07:45:50;14.23;;;12.82;;
11203;SDS011;5659;49.408;11.116;2022-08-19T07:48:18;13.88;;;12.48;;
11203;SDS011;5659;49.408;11.116;2022-08-19T07:50:44;13.90;;;12.40;;
11203;SDS011;5659;49.408;11.116;2022-08-19T07:53:10;14.48;;;12.95;;
11203;SDS011;5659;49.408;11.116;2022-08-19T07:55:37;14.35;;;12.95;;
11203;SDS011;5659;49.408;11.116;2022-08-19T07:58:03;13.73;;;12.07;;
11203;SDS011;5659;49.408;11.116;2022-08-19T08:00:29;14.00;;;12.35;;
11203;SDS011;5659;49.408;11.116;2022-08-19T08:02:55;12.77;;;11.48;;
11203;SDS011;5659;49.408;11.116;2022-08-19T08:05:22;13.10;;;11.80;;
11203;SDS011;5659;49.408;11.116;2022-08-19T08:08:07;14.30;;;12.48;;
11203;SDS011;5659;49.408;11.116;2022-08-19T08:10:52;12.52;;;11.23;;
11203;SDS011;5659;49.408;11.116;2022-08-19T08:13:18;14.98;;;11.60;;
11203;SDS011;5659;49.408;11.116;2022-08-19T08:15:43;13.32;;;12.00;;
11203;SDS011;5659;49.408;11.116;2022-08-19T08:18:10;15.77;;;13.65;;
11203;SDS011;5659;49.408;11.116;2022-08-19T08:20:36;16.20;;;14.35;;
11203;SDS011;5659;49.408;11.116;2022-08-19T08:23:02;18.65;;;15.32;;
11203;SDS011;5659;49.408;11.116;2022-08-19T08:25:47;17.98;;;12.68;;
11203;SDS011;5659;49.408;11.116;2022-08-19T08:28:13;15.95;;;14.02;;
11203;SDS011;5659;49.408;11.116;2022-08-19T08:30:39;16.48;;;14.27;;
11203;SDS011;5659;49.408;11.116;2022-08-19T08:33:08;16.88;;;14.23;;
11203;SDS011;5659;49.408;11.116;2022-08-19T08:35:34;17.17;;;15.30;;
11203;SDS011;5659;49.408;11.116;2022-08-19T08:38:00;15.80;;;14.15;;
11203;SDS011;5659;49.408;11.116;2022-08-19T08:40:45;16.80;;;14.60;;
11203;SDS011;5659;49.408;11.116;2022-08-19T08:43:24;18.38;;;15.48;;
11203;SDS011;5659;49.408;11.116;2022-08-19T08:46:00;16.80;;;15.02;;
11203;SDS011;5659;49.408;11.116;2022-08-19T08:48:35;18.15;;;14.23;;
11203;SDS011;5659;49.408;11.116;2022-08-19T08:51:03;15.27;;;13.77;;
11203;SDS011;5659;49.408;11.116;2022-08-19T08:53:30;15.23;;;13.70;;
11203;SDS011;5659;49.408;11.116;2022-08-19T08:55:58;16.45;;;13.10;;
11203;SDS011;5659;49.408;11.116;2022-08-19T09:01:15;14.48;;;13.05;;
11203;SDS011;5659;49.408;11.116;2022-08-19T09:03:42;16.83;;;13.07;;
11203;SDS011;5659;49.408;11.116;2022-08-19T09:11:03;17.15;;;15.38;;
11203;SDS011;5659;49.408;11.116;2022-08-19T09:16:07;19.40;;;16.20;;
11203;SDS011;5659;49.408;11.116;2022-08-19T09:21:08;20.55;;;16.85;;
11203;SDS011;5659;49.408;11.116;2022-08-19T09:23:35;18.73;;;16.65;;
11203;SDS011;5659;49.408;11.116;2022-08-19T09:26:05;26.38;;;20.88;;
11203;SDS011;5659;49.408;11.116;2022-08-19T09:28:31;30.30;;;24.02;;
11203;SDS011;5659;49.408;11.116;2022-08-19T09:30:57;28.27;;;23.98;;
11203;SDS011;5659;49.408;11.116;2022-08-19T09:33:23;31.70;;;25.45;;
11203;SDS011;5659;49.408;11.116;2022-08-19T09:35:49;30.38;;;25.90;;
11203;SDS011;5659;49.408;11.116;2022-08-19T09:38:15;33.22;;;27.35;;
11203;SDS011;5659;49.408;11.116;2022-08-19T09:40:41;32.67;;;25.48;;
11203;SDS011;5659;49.408;11.116;2022-08-19T09:43:07;33.38;;;27.48;;
11203;SDS011;5659;49.408;11.116;2022-08-19T09:45:35;31.45;;;26.15;;
11203;SDS011;5659;49.408;11.116;2022-08-19T09:48:01;27.70;;;23.83;;
11203;SDS011;5659;49.408;11.116;2022-08-19T09:50:27;27.13;;;23.95;;
11203;SDS011;5659;49.408;11.116;2022-08-19T09:52:54;27.90;;;22.58;;
11203;SDS011;5659;49.408;11.116;2022-08-19T09:55:21;29.70;;;22.98;;
11203;SDS011;5659;49.408;11.116;2022-08-19T09:57:47;27.92;;;22.77;;
11203;SDS011;5659;49.408;11.116;2022-08-19T10:00:13;25.88;;;22.15;;
11203;SDS011;5659;49.408;11.116;2022-08-19T10:02:39;26.67;;;21.67;;
11203;SDS011;5659;49.408;11.116;2022-08-19T10:05:05;25.58;;;21.65;;
11203;SDS011;5659;49.408;11.116;2022-08-19T10:07:50;26.33;;;21.85;;
11203;SDS011;5659;49.408;11.116;2022-08-19T10:10:16;25.20;;;21.30;;
11203;SDS011;5659;49.408;11.116;2022-08-19T10:12:42;27.67;;;22.00;;
11203;SDS011;5659;49.408;11.116;2022-08-19T10:15:12;23.42;;;20.92;;
11203;SDS011;5659;49.408;11.116;2022-08-19T10:17:38;24.63;;;22.05;;
11203;SDS011;5659;49.408;11.116;2022-08-19T10:20:04;25.33;;;21.10;;
11203;SDS011;5659;49.408;11.116;2022-08-19T10:22:30;28.85;;;22.23;;
11203;SDS011;5659;49.408;11.116;2022-08-19T10:24:56;26.35;;;22.85;;
11203;SDS011;5659;49.408;11.116;2022-08-19T10:27:23;28.52;;;23.00;;
11203;SDS011;5659;49.408;11.116;2022-08-19T10:29:49;24.95;;;22.05;;
11203;SDS011;5659;49.408;11.116;2022-08-19T10:32:15;26.40;;;22.58;;
11203;SDS011;5659;49.408;11.116;2022-08-19T10:34:41;27.55;;;23.77;;
11203;SDS011;5659;49.408;11.116;2022-08-19T10:37:07;30.38;;;23.88;;
11203;SDS011;5659;49.408;11.116;2022-08-19T10:39:34;32.20;;;23.75;;
11203;SDS011;5659;49.408;11.116;2022-08-19T10:42:05;27.05;;;22.52;;
11203;SDS011;5659;49.408;11.116;2022-08-19T10:44:31;28.05;;;21.73;;
11203;SDS011;5659;49.408;11.116;2022-08-19T10:46:57;31.13;;;21.77;;
11203;SDS011;5659;49.408;11.116;2022-08-19T10:49:23;27.85;;;22.67;;
11203;SDS011;5659;49.408;11.116;2022-08-19T10:51:49;31.50;;;22.35;;
11203;SDS011;5659;49.408;11.116;2022-08-19T10:54:34;24.38;;;21.40;;
11203;SDS011;5659;49.408;11.116;2022-08-19T10:57:18;26.35;;;21.73;;
11203;SDS011;5659;49.408;11.116;2022-08-19T10:59:44;27.58;;;23.05;;
11203;SDS011;5659;49.408;11.116;2022-08-19T11:02:12;29.05;;;21.77;;
11203;SDS011;5659;49.408;11.116;2022-08-19T11:04:38;25.75;;;22.40;;
11203;SDS011;5659;49.408;11.116;2022-08-19T11:07:05;25.50;;;22.05;;
11203;SDS011;5659;49.408;11.116;2022-08-19T11:09:36;26.38;;;21.40;;
11203;SDS011;5659;49.408;11.116;2022-08-19T11:12:03;28.83;;;20.48;;
11203;SDS011;5659;49.408;11.116;2022-08-19T11:14:29;28.95;;;21.73;;
11203;SDS011;5659;49.408;11.116;2022-08-19T11:16:57;26.40;;;21.50;;
11203;SDS011;5659;49.408;11.116;2022-08-19T11:19:23;26.02;;;22.10;;
11203;SDS011;5659;49.408;11.116;2022-08-19T11:21:50;26.63;;;22.45;;
11203;SDS011;5659;49.408;11.116;2022-08-19T11:24:18;30.10;;;22.55;;
11203;SDS011;5659;49.408;11.116;2022-08-19T11:26:45;26.30;;;21.88;;
11203;SDS011;5659;49.408;11.116;2022-08-19T11:29:13;27.35;;;22.83;;
11203;SDS011;5659;49.408;11.116;2022-08-19T11:31:43;27.85;;;23.73;;
11203;SDS011;5659;49.408;11.116;2022-08-19T11:34:10;28.77;;;24.35;;
11203;SDS011;5659;49.408;11.116;2022-08-19T11:36:38;29.40;;;25.63;;
11203;SDS011;5659;49.408;11.116;2022-08-19T11:39:05;29.55;;;26.27;;
11203;SDS011;5659;49.408;11.116;2022-08-19T11:41:31;32.13;;;26.83;;
11203;SDS011;5659;49.408;11.116;2022-08-19T11:43:57;30.92;;;26.38;;
11203;SDS011;5659;49.408;11.116;2022-08-19T11:46:27;32.35;;;28.50;;
11203;SDS011;5659;49.408;11.116;2022-08-19T11:48:54;34.00;;;28.38;;
11203;SDS011;5659;49.408;11.116;2022-08-19T11:51:21;31.92;;;26.38;;
11203;SDS011;5659;49.408;11.116;2022-08-19T11:53:49;33.67;;;28.17;;
11203;SDS011;5659;49.408;11.116;2022-08-19T11:56:15;34.15;;;28.17;;
11203;SDS011;5659;49.408;11.116;2022-08-19T11:58:41;34.00;;;28.35;;
11203;SDS011;5659;49.408;11.116;2022-08-19T12:01:08;37.72;;;30.30;;
11203;SDS011;5659;49.408;11.116;2022-08-19T12:03:35;42.22;;;31.00;;
11203;SDS011;5659;49.408;11.116;2022-08-19T12:06:05;36.33;;;29.85;;
11203;SDS011;5659;49.408;11.116;2022-08-19T12:08:32;37.38;;;30.33;;
11203;SDS011;5659;49.408;11.116;2022-08-19T12:10:58;36.58;;;30.08;;
11203;SDS011;5659;49.408;11.116;2022-08-19T12:13:26;35.35;;;29.20;;
11203;SDS011;5659;49.408;11.116;2022-08-19T12:15:53;35.78;;;30.02;;
11203;SDS011;5659;49.408;11.116;2022-08-19T12:18:19;40.90;;;31.75;;
11203;SDS011;5659;49.408;11.116;2022-08-19T12:20:45;34.72;;;30.17;;
11203;SDS011;5659;49.408;11.116;2022-08-19T12:23:12;38.83;;;31.52;;
11203;SDS011;5659;49.408;11.116;2022-08-19T12:25:43;36.63;;;31.55;;
11203;SDS011;5659;49.408;11.116;2022-08-19T12:28:19;40.55;;;31.02;;
11203;SDS011;5659;49.408;11.116;2022-08-19T12:30:46;38.25;;;30.45;;
11203;SDS011;5659;49.408;11.116;2022-08-19T12:33:12;41.30;;;31.45;;
11203;SDS011;5659;49.408;11.116;2022-08-19T12:35:39;41.33;;;31.25;;
11203;SDS011;5659;49.408;11.116;2022-08-19T12:38:06;39.13;;;32.45;;
11203;SDS011;5659;49.408;11.116;2022-08-19T12:40:32;38.75;;;31.90;;
11203;SDS011;5659;49.408;11.116;2022-08-19T12:42:58;43.30;;;33.03;;
11203;SDS011;5659;49.408;11.116;2022-08-19T12:45:24;38.28;;;32.75;;
11203;SDS011;5659;49.408;11.116;2022-08-19T12:47:50;44.78;;;33.97;;
11203;SDS011;5659;49.408;11.116;2022-08-19T12:50:18;38.88;;;32.10;;
11203;SDS011;5659;49.408;11.116;2022-08-19T12:52:46;42.85;;;33.13;;
11203;SDS011;5659;49.408;11.116;2022-08-19T12:55:13;37.20;;;31.73;;
11203;SDS011;5659;49.408;11.116;2022-08-19T12:57:39;38.88;;;31.45;;
11203;SDS011;5659;49.408;11.116;2022-08-19T13:00:07;39.35;;;31.55;;
11203;SDS011;5659;49.408;11.116;2022-08-19T13:02:35;38.40;;;32.00;;
11203;SDS011;5659;49.408;11.116;2022-08-19T13:05:02;36.92;;;30.58;;
11203;SDS011;5659;49.408;11.116;2022-08-19T13:07:28;38.55;;;30.92;;
11203;SDS011;5659;49.408;11.116;2022-08-19T13:09:55;42.03;;;31.38;;
11203;SDS011;5659;49.408;11.116;2022-08-19T13:12:21;32.58;;;28.90;;
11203;SDS011;5659;49.408;11.116;2022-08-19T13:14:49;34.42;;;30.48;;
11203;SDS011;5659;49.408;11.116;2022-08-19T13:17:16;33.28;;;29.55;;
11203;SDS011;5659;49.408;11.116;2022-08-19T13:19:42;37.13;;;31.55;;
11203;SDS011;5659;49.408;11.116;2022-08-19T13:22:07;40.17;;;31.73;;
11203;SDS011;5659;49.408;11.116;2022-08-19T13:24:33;39.05;;;32.60;;
11203;SDS011;5659;49.408;11.116;2022-08-19T13:27:01;39.78;;;33.47;;
11203;SDS011;5659;49.408;11.116;2022-08-19T13:29:27;43.92;;;35.50;;
11203;SDS011;5659;49.408;11.116;2022-08-19T13:32:12;40.03;;;34.08;;
11203;SDS011;5659;49.408;11.116;2022-08-19T13:34:57;45.70;;;35.45;;
11203;SDS011;5659;49.408;11.116;2022-08-19T13:37:23;47.53;;;35.17;;
11203;SDS011;5659;49.408;11.116;2022-08-19T13:40:06;45.10;;;36.42;;
11203;SDS011;5659;49.408;11.116;2022-08-19T13:42:32;44.65;;;36.60;;
11203;SDS011;5659;49.408;11.116;2022-08-19T13:44:58;46.55;;;38.30;;
11203;SDS011;5659;49.408;11.116;2022-08-19T13:47:24;49.00;;;38.53;;
11203;SDS011;5659;49.408;11.116;2022-08-19T13:49:50;43.15;;;36.80;;
11203;SDS011;5659;49.408;11.116;2022-08-19T13:52:16;51.42;;;39.05;;
11203;SDS011;5659;49.408;11.116;2022-08-19T13:54:43;46.80;;;37.75;;
11203;SDS011;5659;49.408;11.116;2022-08-19T13:57:09;46.58;;;37.47;;
11203;SDS011;5659;49.408;11.116;2022-08-19T13:59:35;50.22;;;37.63;;
11203;SDS011;5659;49.408;11.116;2022-08-19T14:02:01;55.17;;;36.97;;
11203;SDS011;5659;49.408;11.116;2022-08-19T14:04:27;47.33;;;37.58;;
11203;SDS011;5659;49.408;11.116;2022-08-19T14:06:53;47.65;;;36.08;;
11203;SDS011;5659;49.408;11.116;2022-08-19T14:09:19;38.50;;;31.38;;
11203;SDS011;5659;49.408;11.116;2022-08-19T14:11:45;37.58;;;32.78;;
11203;SDS011;5659;49.408;11.116;2022-08-19T14:14:11;36.85;;;30.75;;
11203;SDS011;5659;49.408;11.116;2022-08-19T14:16:37;39.25;;;31.73;;
11203;SDS011;5659;49.408;11.116;2022-08-19T14:19:03;34.65;;;29.50;;
11203;SDS011;5659;49.408;11.116;2022-08-19T14:21:29;34.72;;;29.13;;
11203;SDS011;5659;49.408;11.116;2022-08-19T14:23:55;39.33;;;29.48;;
11203;SDS011;5659;49.408;11.116;2022-08-19T14:26:21;35.92;;;27.88;;
11203;SDS011;5659;49.408;11.116;2022-08-19T14:28:48;32.92;;;26.88;;
11203;SDS011;5659;49.408;11.116;2022-08-19T14:31:15;28.25;;;25.23;;
11203;SDS011;5659;49.408;11.116;2022-08-19T14:33:44;33.60;;;25.10;;
11203;SDS011;5659;49.408;11.116;2022-08-19T14:36:10;26.17;;;23.48;;